• Join FlightAware (Why Join?)
  • Login
  • US Flag 
08:32PM EST


 

Airport Tracker/Info


-or-


 

Live Flight TrackerFlight Track Log ✈ ASH3785 ✈ 17-Feb-2014 ✈ KORD - KDAY

Flight Track Log - Related Links

Times and Time Zones

All times are in EST time to prevent confusion due to time zone crossing. See the ASH3785 flight status page for this flight to view local times or setup timezone preferences in your user account.

Time Position Orientation Groundspeed Altitude Reporting Facility
EST Latitude Longitude Course Direction KTS MPH feet Rate Location/Type
11:42PM 41.9833 -87.9500 86° East 204 235 3,700  Level Chicago TRACON
11:43PM 42.0333 -87.9167 26° Northeast 282 325 5,500 2,421 Climbing Chicago TRACON
11:44PM 41.9432 -87.2616 96° East  Level FlightAware Approximate
11:44PM 42.0833 -87.8333 51° Northeast 272 313 8,300  Level Chicago TRACON
11:45PM 41.9333 -87.1024 90° East  Level FlightAware Approximate
11:46PM 41.9333 -86.9424 90° East  Level FlightAware Approximate
11:46PM 42.0567 -87.5586 97° East 363 418 12,800  Level Chicago Center
11:47PM 41.9382 -86.8167 86° East  Level FlightAware Approximate
11:47PM 42.0228 -87.4092 107° East 414 476 14,600  Level Chicago Center
11:48PM 41.9906 -87.2586 106° East 418 481 16,800 2,164 Climbing Chicago Center
11:49PM 41.9558 -87.1044 107° East 426 490 19,000 2,016 Climbing Chicago Center
11:50PM 41.9483 -86.9456 94° East 435 501 20,900 1,918 Climbing Chicago Center
11:51PM 41.9500 -86.7883 89° East 425 489 22,900 1,033 Climbing Chicago Center
11:52PM 41.9172 -86.6378 106° East 430 495 23,000 49 Climbing Chicago Center
11:53PM 41.8281 -86.5247 137° Southeast 443 510 23,000  Level Chicago Center
11:54PM 41.7361 -86.4078 136° Southeast 456 525 23,000  Level Chicago Center
11:55PM 41.6403 -86.2911 138° Southeast 466 536 23,000  Level Chicago Center
11:56PM 41.5450 -86.1728 137° Southeast 470 541 23,000  Level Chicago Center
11:57PM 41.4503 -86.0558 137° Southeast 469 540 23,000  Level Chicago Center
11:58PM 41.3350 -85.9144 137° Southeast 472 543 23,000  Level Chicago Center
11:59PM 41.2397 -85.7981 137° Southeast 472 543 23,000  Level Chicago Center
12:00AM 41.1456 -85.6819 137° Southeast 469 540 23,000 -347 Level Chicago Center
12:01AM 41.0481 -85.5658 138° Southeast 471 542 22,300 -1,140 Descending Chicago Center
12:02AM 40.9528 -85.4500 137° Southeast 471 542 20,700 -1,574 Descending Chicago Center
12:03AM 40.8544 -85.3328 138° Southeast 474 545 19,100 -1,672 Descending Chicago Center
12:04AM 40.7586 -85.2178 138° Southeast 472 543 17,300 -1,672 Descending Chicago Center
12:05AM 40.6631 -85.1042 138° Southeast 468 539 15,700 -1,608 Descending Chicago Center
12:06AM 40.5972 -85.0289 139° Southeast 463 533 14,700 -1,800 Descending Indianapolis Center
12:06AM 40.5544 -84.9764 137° Southeast 457 526 13,900 -1,629 Descending Indianapolis Center
12:07AM 40.4883 -84.9008 139° Southeast 460 529 12,800 -1,574 Descending Indianapolis Center
12:07AM 40.4631 -84.8706 138° Southeast 435 501 12,300 -1,548 Descending Indianapolis Center
12:08AM 40.3997 -84.7969 138° Southeast 443 510 11,200 -1,200 Descending Indianapolis Center
12:08AM 40.3758 -84.7658 135° Southeast 424 488 11,100 -787 Descending Indianapolis Center
12:09AM 40.3147 -84.6917 137° Southeast 431 496 10,400 -984 Descending Indianapolis Center
12:09AM 40.2883 -84.6614 139° Southeast 424 488 10,100 -393 Descending Indianapolis Center
12:10AM 40.2283 -84.5883 137° Southeast 427 491 10,000 -98 Descending Indianapolis Center
12:10AM 40.2006 -84.5572 139° Southeast 426 490 10,000  Level Indianapolis Center
12:11AM 40.1436 -84.4803 134° Southeast 430 495 10,000  Level Indianapolis Center
12:11AM 40.1361 -84.4328 102° East 427 491 10,000  Level Indianapolis Center
12:12AM 40.1292 -84.3353 95° East 410 472 10,000 -393 Level Indianapolis Center
12:12AM 40.1253 -84.2992 98° East 343 395 9,600 -1,672 Descending Indianapolis Center
12:13AM 40.1197 -84.2142 95° East 364 419 8,300 -1,869 Descending Indianapolis Center
12:13AM 40.1153 -84.1742 98° East 333 383 7,700 -1,967 Descending Indianapolis Center
12:14AM 40.1114 -84.0944 94° East 344 396 6,300 -1,800 Descending Indianapolis Center
12:14AM 40.0978 -84.0614 118° Southeast 315 362 5,900 -1,279 Descending Indianapolis Center
12:15AM 40.0639 -84.0142 133° Southeast 299 344 5,000 -1,475 Descending Indianapolis Center
12:15AM 40.0425 -84.0050 162° South 233 268 4,400 -1,967 Descending Indianapolis Center
12:16AM 40.0078 -84.0289 208° Southwest 215 247 3,000 -1,400 Descending Indianapolis Center
12:16AM 40.0036 -84.0364 234° Southwest 146 168 3,000  Level Indianapolis Center
12:17AM 39.9864 -84.0761 241° Southwest 174 200 3,000  Level Indianapolis Center
12:17AM 39.9819 -84.0819 225° Southwest 143 165 3,000 -98 Level Indianapolis Center
12:18AM 39.9639 -84.1172 236° Southwest 155 178 2,900 -200 Descending Indianapolis Center
12:18AM 39.9608 -84.1219 230° Southwest 136 157 2,800 -492 Descending Indianapolis Center
12:19AM 39.9478 -84.1456 234° Southwest 125 144 2,400 -492 Descending Indianapolis Center
12:19AM 39.9453 -84.1519 243° Southwest 93 107 2,300 -700 Descending Indianapolis Center
12:20AM 39.9317 -84.1769 235° Southwest 110 127 1,700 -689 Descending Indianapolis Center
12:20AM 39.9267 -84.1869 237° Southwest 107 123 1,600 -98 Descending Indianapolis Center
12:21AM 39.9153 -84.2100 237° Southwest 110 127 1,600  Level Indianapolis Center